Terminal Aerodrome Forecast
Issued by NWS

Current Version | Previous Version | Text Only | Print | Product List | Glossary On
Versions: 1 2 3 4 5 6 7 8 9 10 11 12
000
FTUS46 KSEW 152300
TAFPAE
TAF
KPAE 152320Z 1600/1624 36006KT P6SM FEW250
     FM160300 02005KT P6SM SCT100 BKN200
     FM161200 15005KT P6SM SCT100 BKN200
     FM161700 18006KT P6SM SCT200
     FM162300 32005KT P6SM SCT100=

USA.gov is the U.S. government's official web portal to all federal, state and local government web resources and services.